Hassler — WTEK — position and weather

sailwx.info

Track history (hours):
 
Tides and Currents Weather Stations Pressure Air Temp Water Temp Dewpoint Dewpoint Depression Visibility Wind Speed Wind Dir Waves Ship Positions

Oceanographic research ship Hassler (USA)

Last reported at 2016-Apr-18 11:44 UTC. Time now 2016-Apr-28 21:54 UTC.
Position N 32°48' W 079°54'.
Warning: this ship's position is 10 days out of date.

Length 37 m; draft 3.8 m.

Type: . MMSI: 369970091.

Wind from 320 at 3 knots

Air temperature 15.7 ° C

Date/timePositionNaut miles runAvg speedWind from/ knotsBaromVisibWave heightAir tempDewpointWater temp
2016-Apr-18 11:44N 32°48' W 079°54'0 0.0 320 / 3 15.7
2016-Apr-18 10:44N 32°48' W 079°54'0 0.0 340 / 2 9.9
2016-Apr-18 08:44N 32°48' W 079°54'0 0.0 300 / 1 9.5
2016-Apr-18 06:44N 32°48' W 079°54'0 0.0 11.6
2016-Apr-18 05:44N 32°48' W 079°54'0 0.0 11.9
2016-Apr-17 22:45N 32°48' W 079°54'0 0.0 090 / 6 20.7
2016-Apr-17 20:45N 32°48' W 079°54'0 0.0 090 / 8 21.7
2016-Apr-17 19:45N 32°48' W 079°54'0 0.0 010 / 10 22.2
2016-Apr-17 17:45N 32°48' W 079°54'0 0.0 360 / 8 20.2
2016-Apr-17 16:45N 32°48' W 079°54'0 0.0 020 / 12 18.9
2016-Apr-17 14:45N 32°48' W 079°54'0 0.0 020 / 14 17.3
2016-Apr-17 13:46N 32°48' W 079°54'0 0.0 020 / 16 14.9
2016-Apr-17 12:46N 32°48' W 079°54'0 0.0 030 / 14 13.6
2016-Apr-17 09:46N 32°48' W 079°54'0 0.0 010 / 6 11.6
2016-Apr-17 08:46N 32°48' W 079°54'0 0.0 020 / 6 12.1
2016-Apr-17 07:46N 32°48' W 079°54'0 0.0 020 / 6 12.3
2016-Apr-17 05:46N 32°48' W 079°54'0 0.0 040 / 5 12.8
2016-Apr-17 04:46N 32°48' W 079°54'0 0.0 050 / 6 13.5
2016-Apr-17 03:46N 32°48' W 079°54'0 0.0 060 / 6 14.1
2016-Apr-17 02:46N 32°48' W 079°54'0 0.0 030 / 7 14.0
2016-Apr-16 22:47N 32°48' W 079°54'0 0.0 080 / 11 18.3
2016-Apr-16 20:47N 32°48' W 079°54'0 0.0 080 / 14 20.2
2016-Apr-16 19:47N 32°48' W 079°54'0 0.0 080 / 10 22.1
2016-Apr-16 18:47N 32°48' W 079°54'0 0.0 080 / 12 21.4
2016-Apr-16 17:47N 32°48' W 079°54'0 0.0 080 / 5 22.8
2016-Apr-16 16:47N 32°48' W 079°54'0 0.0 020 / 11 20.1
2016-Apr-16 13:47N 32°48' W 079°54'0 0.0 020 / 13 15.9
2016-Apr-16 11:47N 32°48' W 079°54'0 0.0 020 / 13 12.1
2016-Apr-16 10:48N 32°48' W 079°54'0 0.0 020 / 13 11.0
2016-Apr-16 09:48N 32°48' W 079°54'0 0.0 020 / 11 11.2
2016-Apr-16 06:48N 32°48' W 079°54'0 0.0 030 / 13 14.4
2016-Apr-16 05:48N 32°48' W 079°54'0 0.0 030 / 11 15.0
2016-Apr-16 04:48N 32°48' W 079°54'0 0.0 050 / 11 15.2
2016-Apr-16 02:48N 32°48' W 079°54'0 0.0 040 / 10 15.4
2016-Apr-16 00:48N 32°48' W 079°54'0 0.0 040 / 12 14.9
2016-Apr-15 21:48N 32°48' W 079°54'0 0.0 030 / 14 14.1
2016-Apr-15 20:49N 32°48' W 079°54'0 0.0 020 / 11 14.1
2016-Apr-15 19:49N 32°48' W 079°54'0 0.0 020 / 13 13.3
2016-Apr-15 17:49N 32°48' W 079°54'0 0.0 020 / 14 14.4
2016-Apr-15 16:49N 32°48' W 079°54'0 0.0 020 / 15 12.9
2016-Apr-15 15:49N 32°48' W 079°54'0 0.0 020 / 12 11.8
2016-Apr-15 14:49N 32°48' W 079°54'0 0.0 030 / 16 10.5
2016-Apr-15 13:49N 32°48' W 079°54'0 0.0 020 / 15 9.2
2016-Apr-15 11:49N 32°48' W 079°54'0 0.0 030 / 11 9.1
2016-Apr-15 10:49N 32°48' W 079°54'0 0.0 020 / 13 9.7
2016-Apr-15 09:49N 32°48' W 079°54'0 0.0 030 / 12 10.1
2016-Apr-15 07:49N 32°48' W 079°54'0 0.0 030 / 15 11.9
2016-Apr-15 06:49N 32°48' W 079°54'0 0.0 020 / 14 12.5
2016-Apr-15 05:50N 32°48' W 079°54'0 0.0 030 / 12 14.9
2016-Apr-15 04:50N 32°48' W 079°54'0 0.0 040 / 11 14.7
2016-Apr-15 03:50N 32°48' W 079°54'0 0.0 040 / 14 15.9
2016-Apr-15 02:50N 32°48' W 079°54'0 0.0 040 / 7 15.5
2016-Apr-15 01:50N 32°48' W 079°54'0 0.0 030 / 7 15.4
2016-Apr-14 21:50N 32°48' W 079°54'0 0.0 080 / 5 19.0
2016-Apr-14 20:50N 32°48' W 079°54'0 0.0 080 / 6 19.7
2016-Apr-14 19:50N 32°48' W 079°54'0 0.0 080 / 8 19.3
2016-Apr-14 18:49N 32°48' W 079°54'0 0.0 090 / 9 19.8
2016-Apr-14 17:49N 32°48' W 079°54'0 0.0 020 / 8 20.3
2016-Apr-14 14:50N 32°48' W 079°54'0 0.0 020 / 10 16.3
2016-Apr-14 13:50N 32°48' W 079°54'0 0.0 020 / 11 15.2
2016-Apr-14 11:50N 32°48' W 079°54'0 0.0 030 / 14 12.4
2016-Apr-14 10:50N 32°48' W 079°54'0 0.0 020 / 12 12.6
2016-Apr-14 07:51N 32°48' W 079°54'0 0.0 030 / 11 14.6
2016-Apr-14 05:51N 32°48' W 079°54'0 0.0 040 / 7 15.4
2016-Apr-14 04:51N 32°48' W 079°54'0 0.0 050 / 8 15.8
2016-Apr-14 03:51N 32°48' W 079°54'0 0.0 040 / 8 15.9
2016-Apr-14 00:51N 32°48' W 079°54'0 0.0 080 / 6 16.5
2016-Apr-13 22:51N 32°48' W 079°54'0 0.0 080 / 8 17.4
2016-Apr-13 21:51N 32°48' W 079°54'0 0.0 080 / 10 18.8
2016-Apr-13 20:51N 32°48' W 079°54'0 0.0 090 / 11 20.0
2016-Apr-13 18:52N 32°48' W 079°54'0 0.0 090 / 11 20.7
2016-Apr-13 17:52N 32°48' W 079°54'0 0.0 090 / 7 22.2
2016-Apr-13 15:52N 32°48' W 079°54'0 0.0 090 / 9 20.2
2016-Apr-13 14:52N 32°48' W 079°54'0 0.0 020 / 9 16.0
2016-Apr-13 13:52N 32°48' W 079°54'0 0.0 040 / 16 14.4
2016-Apr-13 11:52N 32°48' W 079°54'0 0.0 040 / 10 17.2
2016-Apr-13 10:52N 32°48' W 079°54'0 0.0 020 / 11 16.6
2016-Apr-13 08:52N 32°48' W 079°54'0 0.0 020 / 10 16.3
2016-Apr-13 07:52N 32°48' W 079°54'0 0.0 040 / 4 16.1
2016-Apr-13 05:53N 32°48' W 079°54'0 0.0 020 / 3 16.3
2016-Apr-13 04:53N 32°48' W 079°54'0 0.0 360 / 2 16.3
2016-Apr-13 03:53N 32°48' W 079°54'0 0.0 16.8
2016-Apr-13 02:53N 32°48' W 079°54'0 0.0 17.0
2016-Apr-13 01:53N 32°48' W 079°54'0 0.0 17.1
2016-Apr-13 00:53N 32°48' W 079°54'0 0.0 160 / 1 18.2
2016-Apr-12 22:53N 32°48' W 079°54'0 0.0 230 / 4 19.9
2016-Apr-12 21:53N 32°48' W 079°54'0 0.0 160 / 8 18.7
2016-Apr-12 20:53N 32°48' W 079°54'0 0.0 190 / 2 19.3
2016-Apr-12 19:53N 32°48' W 079°54'0 0.0 160 / 3 22.5
2016-Apr-12 18:53N 32°48' W 079°54'0 0.0 160 / 8 22.7
2016-Apr-12 17:54N 32°48' W 079°54'0 0.0 200 / 3 21.0
2016-Apr-12 15:54N 32°48' W 079°54'0 0.0 160 / 3 20.4
2016-Apr-12 14:54N 32°48' W 079°54'0 0.0 150 / 3 21.6
2016-Apr-12 12:55N 32°48' W 079°54'0 0.0 180 / 2 18.0
2016-Apr-12 11:55N 32°48' W 079°54'0 0.0 180 / 3 18.0
2016-Apr-12 10:55N 32°48' W 079°54'0 0.0 180 / 3 18.1
2016-Apr-12 08:55N 32°48' W 079°54'0 0.0 160 / 4 17.9
2016-Apr-12 06:55N 32°48' W 079°54'0 0.0 150 / 2 17.6
2016-Apr-12 05:55N 32°48' W 079°54'0 0.0 160 / 3 17.3
2016-Apr-12 04:55N 32°48' W 079°54'0 0.0 130 / 1 16.7
2016-Apr-12 02:55N 32°48' W 079°54'0 0.0 150 / 2 17.1
2016-Apr-12 01:55N 32°48' W 079°54'0 0.0 140 / 3 17.3
2016-Apr-11 22:56N 32°48' W 079°54'0 0.0 140 / 7 20.8
2016-Apr-11 21:56N 32°48' W 079°54'0 0.0 140 / 6 23.0
2016-Apr-11 20:56N 32°48' W 079°54'0 0.0 170 / 9 21.3
2016-Apr-11 19:56N 32°48' W 079°54'6 6.0 160 / 7 24.0
2016-Apr-11 18:56N 32°42' W 079°54'1010.1 150 / 14 22.9
2016-Apr-11 17:56N 32°42' W 079°42'1211.8 140 / 12 22.4
2016-Apr-11 16:56N 32°36' W 079°30'16 8.2 130 / 14 20.3
2016-Apr-11 14:56N 32°42' W 079°12'2311.7 130 / 17 21.1
2016-Apr-11 12:56N 32°54' W 078°48'1211.7 120 / 17 20.5
2016-Apr-11 11:56N 33°00' W 078°36'2613.0 130 / 17 19.9
2016-Apr-11 09:57N 33°06' W 078°06'1211.7 130 / 14 17.5
2016-Apr-11 08:57N 33°12' W 077°54'2311.7 140 / 12 17.3
2016-Apr-11 06:57N 33°24' W 077°30'1615.6 100 / 12 15.2
2016-Apr-11 05:57N 33°36' W 077°18'1211.7 100 / 11 14.4
2016-Apr-11 04:57N 33°42' W 077°06'2311.8 330 / 2 14.0
2016-Apr-11 02:58N 34°00' W 076°48'1211.6 130 / 11 13.7
2016-Apr-11 01:58N 34°06' W 076°36'1615.6 110 / 13 13.0
2016-Apr-11 00:58N 34°18' W 076°24'2713.4 080 / 10 11.1
2016-Apr-10 22:58N 34°36' W 076°00'8 7.8 010 / 5 10.3
2016-Apr-10 21:58N 34°42' W 075°54'1211.5 090 / 8 11.4
2016-Apr-10 20:58N 34°48' W 075°42'1211.5 050 / 7 15.4
2016-Apr-10 19:58N 34°54' W 075°30'1211.5 030 / 9 12.1
2016-Apr-10 18:58N 35°00' W 075°18'1818.0 010 / 11 11.3
2016-Apr-10 17:58N 35°18' W 075°18'1212.0 010 / 12 11.4
2016-Apr-10 16:58N 35°30' W 075°18'1313.0 360 / 14 10.9
2016-Apr-10 15:58N 35°42' W 075°24'1212.0 360 / 11 9.9
2016-Apr-10 14:58N 35°54' W 075°24'1312.9 350 / 12 10.8
2016-Apr-10 13:58N 36°06' W 075°30'2412.3 010 / 15 9.6
2016-Apr-10 11:59N 36°30' W 075°36'1312.9 350 / 14 6.8
2016-Apr-10 10:59N 36°42' W 075°42'8 7.7 350 / 18 4.8
2016-Apr-10 09:59N 36°48' W 075°48'921.4 330 / 21 3.3
2016-Apr-10 09:33N 36°55' W 075°56'3 6.0
2016-Apr-10 08:59N 36°54' W 076°00'14 4.8 330 / 24 3.6
2016-Apr-10 05:59N 36°54' W 076°18'0 0.0 300 / 14 3.9
2016-Apr-10 02:59N 36°54' W 076°18'0 0.0 310 / 14 6.0
2016-Apr-10 00:59N 36°54' W 076°18'0 0.0 290 / 18 7.4
2016-Apr-10 00:00N 36°54' W 076°18'0 0.0 290 / 23 8.4
2016-Apr-09 23:00N 36°54' W 076°18'0 0.0 270 / 23 9.3
2016-Apr-09 22:00N 36°54' W 076°18'0 0.0 310 / 29 9.8
2016-Apr-09 21:00N 36°54' W 076°18'0 0.0 300 / 22 10.5
2016-Apr-09 20:00N 36°54' W 076°18'15 0.9 290 / 26 10.8
2016-Apr-09 03:26N 36°57' W 075°59'  
Track history (hours):
 
Tides and Currents Weather Stations Pressure Air Temp Water Temp Dewpoint Dewpoint Depression Visibility Wind Speed Wind Dir Waves Ship Positions

Oceanographic research ship Hassler (USA)

Last reported at 2016-Apr-18 11:44 UTC. Time now 2016-Apr-28 21:54 UTC.
Position N 32°48' W 079°54'.
Warning: this ship's position is 10 days out of date.

Length 37 m; draft 3.8 m.

Type: . MMSI: 369970091.

Wind from 320 at 3 knots

Air temperature 15.7 ° C

Date/timePositionNaut miles runAvg speedWind from/ knotsBaromVisibWave heightAir tempDewpointWater temp
2016-Apr-18 11:44N 32°48' W 079°54'0 0.0 320 / 3 15.7
2016-Apr-18 10:44N 32°48' W 079°54'0 0.0 340 / 2 9.9
2016-Apr-18 08:44N 32°48' W 079°54'0 0.0 300 / 1 9.5
2016-Apr-18 06:44N 32°48' W 079°54'0 0.0 11.6
2016-Apr-18 05:44N 32°48' W 079°54'0 0.0 11.9
2016-Apr-17 22:45N 32°48' W 079°54'0 0.0 090 / 6 20.7
2016-Apr-17 20:45N 32°48' W 079°54'0 0.0 090 / 8 21.7
2016-Apr-17 19:45N 32°48' W 079°54'0 0.0 010 / 10 22.2
2016-Apr-17 17:45N 32°48' W 079°54'0 0.0 360 / 8 20.2
2016-Apr-17 16:45N 32°48' W 079°54'0 0.0 020 / 12 18.9
2016-Apr-17 14:45N 32°48' W 079°54'0 0.0 020 / 14 17.3
2016-Apr-17 13:46N 32°48' W 079°54'0 0.0 020 / 16 14.9
2016-Apr-17 12:46N 32°48' W 079°54'0 0.0 030 / 14 13.6
2016-Apr-17 09:46N 32°48' W 079°54'0 0.0 010 / 6 11.6
2016-Apr-17 08:46N 32°48' W 079°54'0 0.0 020 / 6 12.1
2016-Apr-17 07:46N 32°48' W 079°54'0 0.0 020 / 6 12.3
2016-Apr-17 05:46N 32°48' W 079°54'0 0.0 040 / 5 12.8
2016-Apr-17 04:46N 32°48' W 079°54'0 0.0 050 / 6 13.5
2016-Apr-17 03:46N 32°48' W 079°54'0 0.0 060 / 6 14.1
2016-Apr-17 02:46N 32°48' W 079°54'0 0.0 030 / 7 14.0
2016-Apr-16 22:47N 32°48' W 079°54'0 0.0 080 / 11 18.3
2016-Apr-16 20:47N 32°48' W 079°54'0 0.0 080 / 14 20.2
2016-Apr-16 19:47N 32°48' W 079°54'0 0.0 080 / 10 22.1
2016-Apr-16 18:47N 32°48' W 079°54'0 0.0 080 / 12 21.4
2016-Apr-16 17:47N 32°48' W 079°54'0 0.0 080 / 5 22.8
2016-Apr-16 16:47N 32°48' W 079°54'0 0.0 020 / 11 20.1
2016-Apr-16 13:47N 32°48' W 079°54'0 0.0 020 / 13 15.9
2016-Apr-16 11:47N 32°48' W 079°54'0 0.0 020 / 13 12.1
2016-Apr-16 10:48N 32°48' W 079°54'0 0.0 020 / 13 11.0
2016-Apr-16 09:48N 32°48' W 079°54'0 0.0 020 / 11 11.2
2016-Apr-16 06:48N 32°48' W 079°54'0 0.0 030 / 13 14.4
2016-Apr-16 05:48N 32°48' W 079°54'0 0.0 030 / 11 15.0
2016-Apr-16 04:48N 32°48' W 079°54'0 0.0 050 / 11 15.2
2016-Apr-16 02:48N 32°48' W 079°54'0 0.0 040 / 10 15.4
2016-Apr-16 00:48N 32°48' W 079°54'0 0.0 040 / 12 14.9
2016-Apr-15 21:48N 32°48' W 079°54'0 0.0 030 / 14 14.1
2016-Apr-15 20:49N 32°48' W 079°54'0 0.0 020 / 11 14.1
2016-Apr-15 19:49N 32°48' W 079°54'0 0.0 020 / 13 13.3
2016-Apr-15 17:49N 32°48' W 079°54'0 0.0 020 / 14 14.4
2016-Apr-15 16:49N 32°48' W 079°54'0 0.0 020 / 15 12.9
2016-Apr-15 15:49N 32°48' W 079°54'0 0.0 020 / 12 11.8
2016-Apr-15 14:49N 32°48' W 079°54'0 0.0 030 / 16 10.5
2016-Apr-15 13:49N 32°48' W 079°54'0 0.0 020 / 15 9.2
2016-Apr-15 11:49N 32°48' W 079°54'0 0.0 030 / 11 9.1
2016-Apr-15 10:49N 32°48' W 079°54'0 0.0 020 / 13 9.7
2016-Apr-15 09:49N 32°48' W 079°54'0 0.0 030 / 12 10.1
2016-Apr-15 07:49N 32°48' W 079°54'0 0.0 030 / 15 11.9
2016-Apr-15 06:49N 32°48' W 079°54'0 0.0 020 / 14 12.5
2016-Apr-15 05:50N 32°48' W 079°54'0 0.0 030 / 12 14.9
2016-Apr-15 04:50N 32°48' W 079°54'0 0.0 040 / 11 14.7
2016-Apr-15 03:50N 32°48' W 079°54'0 0.0 040 / 14 15.9
2016-Apr-15 02:50N 32°48' W 079°54'0 0.0 040 / 7 15.5
2016-Apr-15 01:50N 32°48' W 079°54'0 0.0 030 / 7 15.4
2016-Apr-14 21:50N 32°48' W 079°54'0 0.0 080 / 5 19.0
2016-Apr-14 20:50N 32°48' W 079°54'0 0.0 080 / 6 19.7
2016-Apr-14 19:50N 32°48' W 079°54'0 0.0 080 / 8 19.3
2016-Apr-14 18:49N 32°48' W 079°54'0 0.0 090 / 9 19.8
2016-Apr-14 17:49N 32°48' W 079°54'0 0.0 020 / 8 20.3
2016-Apr-14 14:50N 32°48' W 079°54'0 0.0 020 / 10 16.3
2016-Apr-14 13:50N 32°48' W 079°54'0 0.0 020 / 11 15.2
2016-Apr-14 11:50N 32°48' W 079°54'0 0.0 030 / 14 12.4
2016-Apr-14 10:50N 32°48' W 079°54'0 0.0 020 / 12 12.6
2016-Apr-14 07:51N 32°48' W 079°54'0 0.0 030 / 11 14.6
2016-Apr-14 05:51N 32°48' W 079°54'0 0.0 040 / 7 15.4
2016-Apr-14 04:51N 32°48' W 079°54'0 0.0 050 / 8 15.8
2016-Apr-14 03:51N 32°48' W 079°54'0 0.0 040 / 8 15.9
2016-Apr-14 00:51N 32°48' W 079°54'0 0.0 080 / 6 16.5
2016-Apr-13 22:51N 32°48' W 079°54'0 0.0 080 / 8 17.4
2016-Apr-13 21:51N 32°48' W 079°54'0 0.0 080 / 10 18.8
2016-Apr-13 20:51N 32°48' W 079°54'0 0.0 090 / 11 20.0
2016-Apr-13 18:52N 32°48' W 079°54'0 0.0 090 / 11 20.7
2016-Apr-13 17:52N 32°48' W 079°54'0 0.0 090 / 7 22.2
2016-Apr-13 15:52N 32°48' W 079°54'0 0.0 090 / 9 20.2
2016-Apr-13 14:52N 32°48' W 079°54'0 0.0 020 / 9 16.0
2016-Apr-13 13:52N 32°48' W 079°54'0 0.0 040 / 16 14.4
2016-Apr-13 11:52N 32°48' W 079°54'0 0.0 040 / 10 17.2
2016-Apr-13 10:52N 32°48' W 079°54'0 0.0 020 / 11 16.6
2016-Apr-13 08:52N 32°48' W 079°54'0 0.0 020 / 10 16.3
2016-Apr-13 07:52N 32°48' W 079°54'0 0.0 040 / 4 16.1
2016-Apr-13 05:53N 32°48' W 079°54'0 0.0 020 / 3 16.3
2016-Apr-13 04:53N 32°48' W 079°54'0 0.0 360 / 2 16.3
2016-Apr-13 03:53N 32°48' W 079°54'0 0.0 16.8
2016-Apr-13 02:53N 32°48' W 079°54'0 0.0 17.0
2016-Apr-13 01:53N 32°48' W 079°54'0 0.0 17.1
2016-Apr-13 00:53N 32°48' W 079°54'0 0.0 160 / 1 18.2
2016-Apr-12 22:53N 32°48' W 079°54'0 0.0 230 / 4 19.9
2016-Apr-12 21:53N 32°48' W 079°54'0 0.0 160 / 8 18.7
2016-Apr-12 20:53N 32°48' W 079°54'0 0.0 190 / 2 19.3
2016-Apr-12 19:53N 32°48' W 079°54'0 0.0 160 / 3 22.5
2016-Apr-12 18:53N 32°48' W 079°54'0 0.0 160 / 8 22.7
2016-Apr-12 17:54N 32°48' W 079°54'0 0.0 200 / 3 21.0
2016-Apr-12 15:54N 32°48' W 079°54'0 0.0 160 / 3 20.4
2016-Apr-12 14:54N 32°48' W 079°54'0 0.0 150 / 3 21.6
2016-Apr-12 12:55N 32°48' W 079°54'0 0.0 180 / 2 18.0
2016-Apr-12 11:55N 32°48' W 079°54'0 0.0 180 / 3 18.0
2016-Apr-12 10:55N 32°48' W 079°54'0 0.0 180 / 3 18.1
2016-Apr-12 08:55N 32°48' W 079°54'0 0.0 160 / 4 17.9
2016-Apr-12 06:55N 32°48' W 079°54'0 0.0 150 / 2 17.6
2016-Apr-12 05:55N 32°48' W 079°54'0 0.0 160 / 3 17.3
2016-Apr-12 04:55N 32°48' W 079°54'0 0.0 130 / 1 16.7
2016-Apr-12 02:55N 32°48' W 079°54'0 0.0 150 / 2 17.1
2016-Apr-12 01:55N 32°48' W 079°54'0 0.0 140 / 3 17.3
2016-Apr-11 22:56N 32°48' W 079°54'0 0.0 140 / 7 20.8
2016-Apr-11 21:56N 32°48' W 079°54'0 0.0 140 / 6 23.0
2016-Apr-11 20:56N 32°48' W 079°54'0 0.0 170 / 9 21.3
2016-Apr-11 19:56N 32°48' W 079°54'6 6.0 160 / 7 24.0
2016-Apr-11 18:56N 32°42' W 079°54'1010.1 150 / 14 22.9
2016-Apr-11 17:56N 32°42' W 079°42'1211.8 140 / 12 22.4
2016-Apr-11 16:56N 32°36' W 079°30'16 8.2 130 / 14 20.3
2016-Apr-11 14:56N 32°42' W 079°12'2311.7 130 / 17 21.1
2016-Apr-11 12:56N 32°54' W 078°48'1211.7 120 / 17 20.5
2016-Apr-11 11:56N 33°00' W 078°36'2613.0 130 / 17 19.9
2016-Apr-11 09:57N 33°06' W 078°06'1211.7 130 / 14 17.5
2016-Apr-11 08:57N 33°12' W 077°54'2311.7 140 / 12 17.3
2016-Apr-11 06:57N 33°24' W 077°30'1615.6 100 / 12 15.2
2016-Apr-11 05:57N 33°36' W 077°18'1211.7 100 / 11 14.4
2016-Apr-11 04:57N 33°42' W 077°06'2311.8 330 / 2 14.0
2016-Apr-11 02:58N 34°00' W 076°48'1211.6 130 / 11 13.7
2016-Apr-11 01:58N 34°06' W 076°36'1615.6 110 / 13 13.0
2016-Apr-11 00:58N 34°18' W 076°24'2713.4 080 / 10 11.1
2016-Apr-10 22:58N 34°36' W 076°00'8 7.8 010 / 5 10.3
2016-Apr-10 21:58N 34°42' W 075°54'1211.5 090 / 8 11.4
2016-Apr-10 20:58N 34°48' W 075°42'1211.5 050 / 7 15.4
2016-Apr-10 19:58N 34°54' W 075°30'1211.5 030 / 9 12.1
2016-Apr-10 18:58N 35°00' W 075°18'1818.0 010 / 11 11.3
2016-Apr-10 17:58N 35°18' W 075°18'1212.0 010 / 12 11.4
2016-Apr-10 16:58N 35°30' W 075°18'1313.0 360 / 14 10.9
2016-Apr-10 15:58N 35°42' W 075°24'1212.0 360 / 11 9.9
2016-Apr-10 14:58N 35°54' W 075°24'1312.9 350 / 12 10.8
2016-Apr-10 13:58N 36°06' W 075°30'2412.3 010 / 15 9.6
2016-Apr-10 11:59N 36°30' W 075°36'1312.9 350 / 14 6.8
2016-Apr-10 10:59N 36°42' W 075°42'8 7.7 350 / 18 4.8
2016-Apr-10 09:59N 36°48' W 075°48'921.4 330 / 21 3.3
2016-Apr-10 09:33N 36°55' W 075°56'3 6.0
2016-Apr-10 08:59N 36°54' W 076°00'14 4.8 330 / 24 3.6
2016-Apr-10 05:59N 36°54' W 076°18'0 0.0 300 / 14 3.9
2016-Apr-10 02:59N 36°54' W 076°18'0 0.0 310 / 14 6.0
2016-Apr-10 00:59N 36°54' W 076°18'0 0.0 290 / 18 7.4
2016-Apr-10 00:00N 36°54' W 076°18'0 0.0 290 / 23 8.4
2016-Apr-09 23:00N 36°54' W 076°18'0 0.0 270 / 23 9.3
2016-Apr-09 22:00N 36°54' W 076°18'0 0.0 310 / 29 9.8
2016-Apr-09 21:00N 36°54' W 076°18'0 0.0 300 / 22 10.5
2016-Apr-09 20:00N 36°54' W 076°18'15 0.9 290 / 26 10.8
2016-Apr-09 03:26N 36°57' W 075°59'  

Dump ship's entire track history